createdAt,value
2019-04-21T00:02:52.534Z,4.00
2019-04-21T00:06:11.970Z,2.60
2019-04-21T00:09:20.428Z,3.10
2019-04-21T00:12:13.974Z,2.50
2019-04-21T00:15:05.021Z,2.50
2019-04-21T00:17:58.412Z,2.50
2019-04-21T00:20:56.218Z,2.20
2019-04-21T00:24:07.653Z,2.00
2019-04-21T00:27:10.942Z,2.30
2019-04-21T00:30:14.130Z,2.00
2019-04-21T00:33:03.314Z,1.00
2019-04-21T00:35:59.844Z,1.10
2019-04-21T00:39:20.943Z,1.10
2019-04-21T00:42:09.810Z,1.20
2019-04-21T00:45:09.570Z,1.80
2019-04-21T00:48:20.669Z,1.70
2019-04-21T00:51:25.085Z,1.10
2019-04-21T00:54:16.759Z,1.30
2019-04-21T00:57:22.075Z,1.90
2019-04-21T01:00:18.666Z,0.90
2019-04-21T01:03:14.510Z,1.00
2019-04-21T01:06:21.256Z,0.80
2019-04-21T01:09:09.574Z,1.20
2019-04-21T01:12:12.718Z,1.20
2019-04-21T01:15:21.159Z,0.90
2019-04-21T01:18:09.251Z,1.50
2019-04-21T01:20:51.736Z,1.30
2019-04-21T01:23:50.851Z,1.60
2019-04-21T01:27:02.038Z,1.70
2019-04-21T01:30:15.019Z,1.10
2019-04-21T01:33:17.360Z,1.50
2019-04-21T01:36:12.294Z,1.60
2019-04-21T01:39:13.180Z,1.50
2019-04-21T01:42:12.633Z,1.80
2019-04-21T01:45:12.877Z,1.60
2019-04-21T01:48:06.229Z,1.10
2019-04-21T01:51:10.074Z,1.20
2019-04-21T01:54:14.665Z,0.60
2019-04-21T01:57:11.443Z,1.20
2019-04-21T01:59:59.760Z,0.90
2019-04-21T02:03:28.523Z,1.00
2019-04-21T02:06:29.106Z,1.00
2019-04-21T02:09:10.091Z,0.90
2019-04-21T02:12:13.418Z,1.00
2019-04-21T02:15:20.134Z,0.90
2019-04-21T02:18:12.084Z,1.10
2019-04-21T02:21:00.143Z,1.20
2019-04-21T02:24:35.129Z,1.30
2019-04-21T02:27:12.787Z,1.00
2019-04-21T02:30:18.577Z,2.30
2019-04-21T02:36:32.806Z,0.50
2019-04-21T02:39:23.194Z,0.80
2019-04-21T02:42:19.972Z,1.00
2019-04-21T02:45:23.587Z,1.10
2019-04-21T02:48:28.667Z,1.10
2019-04-21T02:51:27.993Z,0.80
2019-04-21T02:54:49.782Z,1.80
2019-04-21T03:00:24.573Z,1.10
2019-04-21T03:06:24.992Z,0.80
2019-04-21T03:09:26.241Z,0.70
2019-04-21T03:12:20.615Z,0.90
2019-04-21T03:15:23.472Z,0.50
2019-04-21T03:18:26.601Z,1.10
2019-04-21T03:21:22.233Z,1.10
2019-04-21T03:24:18.448Z,1.00
2019-04-21T03:27:35.551Z,0.70
2019-04-21T03:36:41.053Z,0.80
2019-04-21T03:39:18.020Z,1.00
2019-04-21T03:42:26.895Z,1.00
2019-04-21T03:45:34.793Z,1.70
2019-04-21T03:48:36.159Z,0.90
2019-04-21T03:51:21.021Z,1.30
2019-04-21T03:54:18.183Z,0.70
2019-04-21T04:00:34.701Z,0.80
2019-04-21T04:06:20.568Z,0.70
2019-04-21T04:09:25.724Z,0.80
2019-04-21T04:12:32.813Z,0.60
2019-04-21T04:15:31.118Z,1.10
2019-04-21T04:18:36.255Z,1.00
2019-04-21T04:21:28.809Z,1.70
2019-04-21T04:30:27.639Z,0.80
2019-04-21T04:33:30.337Z,0.90
2019-04-21T04:39:36.302Z,1.30
2019-04-21T04:48:21.126Z,1.00
2019-04-21T04:51:22.996Z,0.80
2019-04-21T04:54:31.640Z,0.90
2019-04-21T04:57:29.067Z,1.00
2019-04-21T05:00:26.123Z,0.90
2019-04-21T05:03:26.356Z,0.80
2019-04-21T05:06:37.243Z,0.50
2019-04-21T05:09:25.256Z,1.20
2019-04-21T05:12:15.759Z,1.00
2019-04-21T05:15:16.190Z,1.10
2019-04-21T05:18:21.943Z,1.20
2019-04-21T05:21:34.284Z,0.90
2019-04-21T05:24:07.504Z,1.70
2019-04-21T05:27:03.446Z,1.40
2019-04-21T05:30:17.793Z,0.90
2019-04-21T05:33:09.690Z,0.90
2019-04-21T05:36:09.386Z,1.30
2019-04-21T05:39:10.692Z,0.60
2019-04-21T05:42:00.260Z,0.60
2019-04-21T05:45:27.027Z,0.80
2019-04-21T05:49:52.485Z,0.70
2019-04-21T05:52:52.015Z,1.00
2019-04-21T05:55:58.401Z,0.80
2019-04-21T05:58:58.085Z,1.40
2019-04-21T06:02:09.313Z,0.70
2019-04-21T06:05:05.836Z,1.10
2019-04-21T06:07:52.673Z,1.10
2019-04-21T06:11:13.147Z,0.90
2019-04-21T06:16:58.665Z,1.20
2019-04-21T06:23:00.889Z,1.80
2019-04-21T06:26:04.324Z,1.00
2019-04-21T06:29:08.647Z,1.10
2019-04-21T06:37:56.485Z,1.40
2019-04-21T06:40:56.386Z,1.70
2019-04-21T06:44:12.879Z,1.60
2019-04-21T06:46:51.670Z,0.80
2019-04-21T06:49:54.927Z,1.10
2019-04-21T06:53:00.777Z,0.90
2019-04-21T06:55:55.975Z,1.10
2019-04-21T06:58:59.238Z,1.70
2019-04-21T07:01:56.631Z,1.30
2019-04-21T07:04:54.638Z,1.80
2019-04-21T07:08:07.729Z,1.60
2019-04-21T07:11:00.572Z,1.80
2019-04-21T07:14:05.664Z,1.30
2019-04-21T07:16:56.380Z,1.40
2019-04-21T07:19:57.439Z,1.20
2019-04-21T07:22:56.513Z,1.60
2019-04-21T07:25:52.910Z,1.10
2019-04-21T07:29:02.956Z,1.40
2019-04-21T07:31:58.726Z,1.50
2019-04-21T07:35:00.309Z,1.20
2019-04-21T07:37:53.357Z,1.20
2019-04-21T07:40:48.488Z,1.70
2019-04-21T07:43:47.753Z,1.30
2019-04-21T07:46:45.288Z,1.90
2019-04-21T07:49:57.411Z,1.70
2019-04-21T07:53:02.047Z,1.70
2019-04-21T07:55:34.245Z,1.10
2019-04-21T07:58:58.287Z,1.40
2019-04-21T08:01:56.390Z,1.80
2019-04-21T08:07:59.239Z,1.50
2019-04-21T08:10:52.268Z,1.20
2019-04-21T08:13:54.996Z,1.80
2019-04-21T08:19:49.670Z,1.30
2019-04-21T08:22:51.614Z,1.80
2019-04-21T08:25:58.964Z,1.90
2019-04-21T08:28:58.457Z,1.80
2019-04-21T08:31:56.144Z,1.80
2019-04-21T08:35:07.126Z,1.50
2019-04-21T08:37:49.557Z,2.30
2019-04-21T08:40:53.702Z,2.10
2019-04-21T08:43:51.384Z,1.60
2019-04-21T08:46:52.583Z,2.10
2019-04-21T08:49:55.467Z,2.30
2019-04-21T08:52:56.436Z,2.30
2019-04-21T08:55:55.399Z,2.70
2019-04-21T08:59:00.717Z,2.50
2019-04-21T09:02:14.415Z,2.30
2019-04-21T09:04:52.751Z,2.70
2019-04-21T09:07:56.070Z,2.70
2019-04-21T09:10:56.049Z,2.80
2019-04-21T09:13:50.648Z,3.00
2019-04-21T09:16:47.278Z,2.90
2019-04-21T09:19:58.049Z,3.30
2019-04-21T09:22:50.575Z,3.10
2019-04-21T09:25:53.032Z,3.30
2019-04-21T09:28:45.135Z,2.80
2019-04-21T09:31:37.429Z,3.10
2019-04-21T09:34:36.986Z,3.20
2019-04-21T09:37:40.720Z,2.90
2019-04-21T09:40:37.161Z,3.30
2019-04-21T09:43:40.052Z,3.40
2019-04-21T09:46:34.175Z,3.60
2019-04-21T09:49:33.213Z,3.90
2019-04-21T09:52:40.906Z,3.70
2019-04-21T09:55:41.751Z,4.00
2019-04-21T09:58:38.664Z,4.00
2019-04-21T10:01:45.047Z,3.70
2019-04-21T10:04:31.220Z,3.70
2019-04-21T10:07:35.579Z,3.10
2019-04-21T10:10:31.923Z,3.70
2019-04-21T10:13:30.138Z,3.80
2019-04-21T10:16:30.101Z,3.50
2019-04-21T10:19:30.089Z,3.50
2019-04-21T10:22:30.968Z,3.90
2019-04-21T10:25:30.661Z,3.60
2019-04-21T10:28:30.986Z,3.40
2019-04-21T10:31:29.991Z,3.60
2019-04-21T10:34:29.947Z,3.40
2019-04-21T10:37:42.892Z,3.30
2019-04-21T10:40:33.820Z,3.50
2019-04-21T10:43:31.194Z,3.30
2019-04-21T10:46:30.799Z,3.40
2019-04-21T10:49:30.777Z,3.00
2019-04-21T10:52:32.457Z,3.50
2019-04-21T10:55:44.440Z,3.60
2019-04-21T10:58:32.038Z,3.30
2019-04-21T11:01:29.724Z,3.20
2019-04-21T11:04:35.356Z,3.40
2019-04-21T11:07:34.433Z,3.20
2019-04-21T11:10:31.885Z,3.40
2019-04-21T11:13:30.728Z,3.20
2019-04-21T11:16:30.847Z,3.30
2019-04-21T11:19:30.717Z,2.90
2019-04-21T11:22:31.015Z,2.80
2019-04-21T11:25:30.428Z,2.90
2019-04-21T11:28:29.480Z,2.40
2019-04-21T11:31:29.478Z,2.40
2019-04-21T11:34:29.429Z,2.80
2019-04-21T11:37:30.483Z,2.40
2019-04-21T11:40:29.694Z,2.10
2019-04-21T11:43:30.707Z,2.10
2019-04-21T11:46:30.674Z,1.70
2019-04-21T11:49:32.277Z,1.90
2019-04-21T11:52:29.301Z,1.90
2019-04-21T11:55:35.250Z,1.60
2019-04-21T11:58:30.225Z,1.40
2019-04-21T12:01:29.725Z,1.60
2019-04-21T12:04:29.537Z,1.40
2019-04-21T12:07:29.374Z,1.60
2019-04-21T12:10:29.348Z,1.60
2019-04-21T12:13:30.037Z,1.50
2019-04-21T12:16:29.069Z,1.60
2019-04-21T12:19:30.441Z,1.30
2019-04-21T12:22:37.318Z,1.50
2019-04-21T12:25:29.229Z,1.00
2019-04-21T12:28:30.288Z,1.70
2019-04-21T12:31:29.769Z,1.70
2019-04-21T12:34:30.182Z,1.00
2019-04-21T12:37:29.000Z,1.50
2019-04-21T12:40:28.874Z,1.10
2019-04-21T12:43:28.805Z,1.30
2019-04-21T12:46:29.881Z,1.20
2019-04-21T12:49:29.724Z,1.20
2019-04-21T12:52:29.463Z,1.10
2019-04-21T12:55:31.681Z,1.00
2019-04-21T12:58:31.033Z,1.00
2019-04-21T13:01:28.668Z,1.00
2019-04-21T13:04:29.345Z,0.80
2019-04-21T13:07:28.635Z,0.70
2019-04-21T13:10:28.566Z,0.80
2019-04-21T13:13:28.550Z,1.00
2019-04-21T13:16:29.467Z,0.80
2019-04-21T13:19:29.357Z,0.80
2019-04-21T13:22:28.476Z,0.70
2019-04-21T13:25:29.669Z,0.90
2019-04-21T13:28:28.415Z,1.10
2019-04-21T13:31:28.394Z,0.70
2019-04-21T13:34:28.428Z,1.10
2019-04-21T13:37:29.678Z,0.90
2019-04-21T13:40:45.086Z,0.90
2019-04-21T13:43:30.715Z,0.70
2019-04-21T13:46:28.914Z,0.80
2019-04-21T13:49:29.501Z,1.00
2019-04-21T13:52:28.994Z,0.50
2019-04-21T13:55:29.619Z,1.10
2019-04-21T13:58:28.560Z,0.80
2019-04-21T14:01:28.097Z,0.90
2019-04-21T14:04:29.454Z,1.20
2019-04-21T14:07:28.125Z,0.90
2019-04-21T14:10:29.247Z,0.60
2019-04-21T14:13:27.980Z,0.90
2019-04-21T14:16:27.967Z,0.90
2019-04-21T14:19:27.922Z,0.80
2019-04-21T14:22:28.343Z,0.80
2019-04-21T14:25:28.033Z,0.60
2019-04-21T14:28:28.272Z,0.70
2019-04-21T14:31:28.437Z,1.10
2019-04-21T14:34:28.181Z,0.50
2019-04-21T14:37:28.755Z,0.80
2019-04-21T14:40:29.853Z,0.80
2019-04-21T14:43:28.031Z,0.50
2019-04-21T14:46:29.026Z,0.80
2019-04-21T14:49:28.986Z,0.80
2019-04-21T14:52:28.724Z,0.80
2019-04-21T14:55:27.581Z,0.80
2019-04-21T14:58:27.541Z,0.80
2019-04-21T15:01:28.213Z,1.00
2019-04-21T15:04:28.031Z,0.60
2019-04-21T15:07:27.609Z,0.80
2019-04-21T15:10:30.565Z,0.70
2019-04-21T15:13:28.052Z,0.50
2019-04-21T15:16:27.371Z,1.00
2019-04-21T15:19:28.674Z,0.60
2019-04-21T15:22:28.342Z,0.60
2019-04-21T15:25:27.966Z,0.80
2019-04-21T15:28:30.707Z,0.80
2019-04-21T15:31:32.986Z,0.90
2019-04-21T15:34:28.206Z,1.00
2019-04-21T15:37:28.263Z,0.80
2019-04-21T15:40:37.688Z,1.00
2019-04-21T15:43:28.638Z,0.70
2019-04-21T15:46:27.061Z,0.80
2019-04-21T15:49:33.205Z,0.80
2019-04-21T15:52:28.218Z,0.60
2019-04-21T15:55:26.969Z,0.90
2019-04-21T15:58:28.260Z,0.60
2019-04-21T16:01:28.135Z,1.00
2019-04-21T16:04:26.896Z,1.00
2019-04-21T16:07:26.846Z,1.10
2019-04-21T16:10:37.635Z,1.10
2019-04-21T16:13:27.797Z,0.90
2019-04-21T16:16:29.082Z,0.80
2019-04-21T16:19:27.201Z,1.10
2019-04-21T16:22:26.697Z,0.70
2019-04-21T16:25:26.866Z,0.90
2019-04-21T16:28:27.054Z,0.60
2019-04-21T16:31:27.875Z,0.60
2019-04-21T16:34:39.275Z,1.00
2019-04-21T16:37:27.837Z,0.90
2019-04-21T16:40:27.598Z,0.80
2019-04-21T16:43:27.478Z,1.00
2019-04-21T16:46:27.464Z,1.10
2019-04-21T16:49:27.483Z,1.10
2019-04-21T16:52:27.996Z,1.00
2019-04-21T16:55:26.783Z,0.80
2019-04-21T16:58:28.703Z,0.90
2019-04-21T17:01:29.220Z,0.70
2019-04-21T17:04:26.556Z,0.90
2019-04-21T17:07:26.358Z,1.00
2019-04-21T17:10:26.606Z,0.60
2019-04-21T17:13:27.216Z,1.40
2019-04-21T17:17:08.732Z,0.90
2019-04-21T17:19:31.612Z,1.10
2019-04-21T17:22:28.002Z,1.10
2019-04-21T17:25:27.825Z,0.80
2019-04-21T17:28:26.007Z,1.10
2019-04-21T17:31:26.668Z,0.70
2019-04-21T17:34:29.722Z,0.80
2019-04-21T17:37:27.290Z,0.80
2019-04-21T17:40:26.358Z,0.90
2019-04-21T17:43:25.884Z,1.00
2019-04-21T17:46:36.694Z,0.60
2019-04-21T17:49:26.790Z,0.80
2019-04-21T17:52:36.598Z,0.90
2019-04-21T17:55:31.315Z,1.50
2019-04-21T17:58:46.285Z,1.10
2019-04-21T18:01:47.478Z,0.80
2019-04-21T18:04:49.350Z,1.20
2019-04-21T18:07:45.406Z,1.00
2019-04-21T18:10:39.187Z,1.10
2019-04-21T18:13:26.945Z,0.60
2019-04-21T18:16:34.276Z,1.10
2019-04-21T18:19:31.055Z,0.70
2019-04-21T18:24:15.208Z,1.10
2019-04-21T18:27:11.591Z,0.80
2019-04-21T18:30:10.609Z,0.70
2019-04-21T18:33:15.495Z,0.90
2019-04-21T18:36:13.468Z,1.60
2019-04-21T18:39:28.574Z,0.80
2019-04-21T18:42:31.149Z,1.90
2019-04-21T18:48:24.535Z,0.90
2019-04-21T18:51:15.746Z,1.70
2019-04-21T18:54:28.853Z,1.10
2019-04-21T18:57:22.810Z,1.20
2019-04-21T19:00:19.373Z,0.80
2019-04-21T19:03:13.698Z,2.30
2019-04-21T19:06:16.466Z,2.20
2019-04-21T19:09:35.851Z,1.70
2019-04-21T19:12:47.358Z,1.10
2019-04-21T19:15:28.172Z,1.40
2019-04-21T19:18:39.862Z,1.60
2019-04-21T19:21:24.537Z,1.10
2019-04-21T19:24:33.261Z,1.80
2019-04-21T19:27:26.039Z,1.40
2019-04-21T19:30:36.774Z,1.40
2019-04-21T19:33:27.018Z,1.50
2019-04-21T19:36:11.182Z,0.80
2019-04-21T19:39:16.121Z,1.80
2019-04-21T19:42:19.331Z,2.20
2019-04-21T19:45:22.416Z,2.00
2019-04-21T19:48:26.097Z,1.70
2019-04-21T19:51:22.022Z,2.00
2019-04-21T19:54:22.122Z,2.10
2019-04-21T19:57:11.189Z,1.30
2019-04-21T20:00:10.173Z,2.40
2019-04-21T20:03:10.469Z,1.90
2019-04-21T20:06:26.887Z,2.20
2019-04-21T20:09:27.823Z,1.90
2019-04-21T20:12:35.530Z,1.60
2019-04-21T20:15:37.366Z,2.20
2019-04-21T20:18:21.042Z,1.30
2019-04-21T20:21:10.177Z,1.00
2019-04-21T20:24:12.640Z,1.20
2019-04-21T20:27:17.788Z,2.60
2019-04-21T20:30:23.344Z,1.40
2019-04-21T20:33:47.759Z,1.60
2019-04-21T20:36:31.397Z,1.90
2019-04-21T20:39:16.594Z,1.00
2019-04-21T20:42:21.621Z,1.90
2019-04-21T20:48:21.067Z,1.40
2019-04-21T20:51:27.413Z,1.20
2019-04-21T20:54:27.120Z,1.30
2019-04-21T20:57:25.931Z,1.10
2019-04-21T21:00:32.226Z,1.40
2019-04-21T21:03:28.884Z,2.90
2019-04-21T21:06:30.346Z,1.90
2019-04-21T21:09:25.342Z,1.60
2019-04-21T21:15:26.394Z,3.00
2019-04-21T21:21:28.011Z,1.70
2019-04-21T21:24:31.187Z,1.90
2019-04-21T21:27:25.424Z,1.90
2019-04-21T21:30:24.302Z,1.20
2019-04-21T21:33:27.466Z,1.40
2019-04-21T21:36:25.210Z,1.70
2019-04-21T21:39:35.512Z,1.00
2019-04-21T21:42:11.307Z,0.90
2019-04-21T21:45:15.971Z,0.70
2019-04-21T21:48:29.632Z,1.00
2019-04-21T21:51:18.101Z,1.10
2019-04-21T21:54:09.706Z,1.30
2019-04-21T21:57:08.289Z,0.70
2019-04-21T22:00:12.378Z,1.20
2019-04-21T22:03:17.595Z,1.20
2019-04-21T22:06:15.250Z,1.30
2019-04-21T22:09:10.207Z,1.80
2019-04-21T22:12:09.114Z,1.40
2019-04-21T22:15:10.859Z,1.20
2019-04-21T22:18:30.363Z,1.60
2019-04-21T22:21:18.949Z,1.70
2019-04-21T22:24:23.629Z,2.20
2019-04-21T22:27:09.465Z,1.80
2019-04-21T22:30:11.005Z,1.80
2019-04-21T22:33:10.842Z,2.10
2019-04-21T22:36:23.836Z,2.00
2019-04-21T22:39:27.283Z,1.60
2019-04-21T22:42:15.723Z,2.20
2019-04-21T22:45:09.327Z,2.20
2019-04-21T22:48:14.353Z,1.70
2019-04-21T22:51:19.162Z,1.80
2019-04-21T22:54:08.394Z,2.50
2019-04-21T22:57:14.719Z,1.40
2019-04-21T23:00:11.861Z,1.90
2019-04-21T23:03:15.019Z,2.00
2019-04-21T23:06:16.213Z,1.80
2019-04-21T23:09:08.797Z,1.80
2019-04-21T23:12:08.092Z,1.90
2019-04-21T23:15:13.436Z,1.60
2019-04-21T23:18:27.338Z,2.20
2019-04-21T23:21:19.489Z,1.50
2019-04-21T23:24:33.115Z,1.30
2019-04-21T23:27:19.958Z,1.90
2019-04-21T23:30:33.592Z,2.00
2019-04-21T23:33:12.292Z,2.10
2019-04-21T23:36:13.912Z,1.80
2019-04-21T23:39:17.029Z,2.00
2019-04-21T23:42:09.205Z,2.30
2019-04-21T23:45:08.618Z,1.70
2019-04-21T23:48:18.611Z,1.60
2019-04-21T23:51:21.814Z,1.10
2019-04-21T23:54:09.097Z,1.40
2019-04-21T23:57:14.231Z,1.10
